createdAt,value
2018-07-12T00:00:55.560Z,6.07
2018-07-12T00:03:22.452Z,6.00
2018-07-12T00:05:49.275Z,5.70
2018-07-12T00:08:16.101Z,5.73
2018-07-12T00:10:42.940Z,6.17
2018-07-12T00:13:09.754Z,5.80
2018-07-12T00:15:36.607Z,5.13
2018-07-12T00:18:03.552Z,5.80
2018-07-12T00:20:30.355Z,6.17
2018-07-12T00:22:57.167Z,6.10
2018-07-12T00:25:24.027Z,5.80
2018-07-12T00:27:50.834Z,6.20
2018-07-12T00:30:17.984Z,5.53
2018-07-12T00:32:44.948Z,5.70
2018-07-12T00:35:11.779Z,6.43
2018-07-12T00:37:38.622Z,6.13
2018-07-12T00:40:05.523Z,6.20
2018-07-12T00:42:32.323Z,6.40
2018-07-12T00:44:59.139Z,5.67
2018-07-12T00:47:26.401Z,6.33
2018-07-12T00:49:53.200Z,6.03
2018-07-12T00:52:20.023Z,7.00
2018-07-12T00:54:46.856Z,6.33
2018-07-12T00:57:14.088Z,6.13
2018-07-12T00:59:41.425Z,6.00
2018-07-12T01:02:08.307Z,6.33
2018-07-12T01:04:35.693Z,6.20
2018-07-12T01:07:02.680Z,6.40
2018-07-12T01:09:29.520Z,6.00
2018-07-12T01:11:56.327Z,6.40
2018-07-12T01:14:23.135Z,6.80
2018-07-12T01:16:49.963Z,6.20
2018-07-12T01:19:16.785Z,6.00
2018-07-12T01:21:43.607Z,6.43
2018-07-12T01:24:10.460Z,6.33
2018-07-12T01:26:37.267Z,6.33
2018-07-12T01:29:04.079Z,6.10
2018-07-12T01:31:30.964Z,5.97
2018-07-12T01:33:57.775Z,6.97
2018-07-12T01:36:24.587Z,6.57
2018-07-12T01:38:51.430Z,6.07
2018-07-12T01:41:18.251Z,5.83
2018-07-12T01:43:45.059Z,6.70
2018-07-12T01:46:11.899Z,6.43
2018-07-12T01:48:38.757Z,6.23
2018-07-12T01:51:05.581Z,6.33
2018-07-12T01:53:32.520Z,6.40
2018-07-12T01:55:59.543Z,6.10
2018-07-12T01:58:26.343Z,6.17
2018-07-12T02:00:53.175Z,6.33
2018-07-12T02:03:19.987Z,6.27
2018-07-12T02:05:46.800Z,6.37
2018-07-12T02:08:13.651Z,5.87
2018-07-12T02:10:40.455Z,5.90
2018-07-12T02:13:07.304Z,6.30
2018-07-12T02:15:34.182Z,6.53
2018-07-12T02:18:01.000Z,6.63
2018-07-12T02:20:27.808Z,5.93
2018-07-12T02:22:54.672Z,6.50
2018-07-12T02:25:21.489Z,6.17
2018-07-12T02:27:48.321Z,6.33
2018-07-12T02:30:15.180Z,6.63
2018-07-12T02:32:42.013Z,6.63
2018-07-12T02:35:08.852Z,6.40
2018-07-12T02:37:35.684Z,6.37
2018-07-12T02:40:02.509Z,6.17
2018-07-12T02:42:29.336Z,6.67
2018-07-12T02:44:56.171Z,6.23
2018-07-12T02:47:22.971Z,6.03
2018-07-12T02:49:49.796Z,6.30
2018-07-12T02:52:16.628Z,5.70
2018-07-12T02:54:43.581Z,6.43
2018-07-12T02:57:10.538Z,7.03
2018-07-12T02:59:37.376Z,6.67
2018-07-12T03:02:04.216Z,6.60
2018-07-12T03:04:31.205Z,6.40
2018-07-12T03:06:58.103Z,6.37
2018-07-12T03:09:24.932Z,6.00
2018-07-12T03:11:51.846Z,6.30
2018-07-12T03:14:18.736Z,6.37
2018-07-12T03:16:45.558Z,6.80
2018-07-12T03:19:12.369Z,6.53
2018-07-12T03:21:39.200Z,5.93
2018-07-12T03:30:48.647Z,6.50
2018-07-12T03:33:15.482Z,6.50
2018-07-12T03:35:42.313Z,7.23
2018-07-12T03:38:09.180Z,6.23
2018-07-12T03:40:36.025Z,6.67
2018-07-12T03:43:02.819Z,7.10
2018-07-12T03:45:29.653Z,7.23
2018-07-12T03:47:56.455Z,6.50
2018-07-12T03:50:23.255Z,6.50
2018-07-12T03:52:50.091Z,7.10
2018-07-12T03:55:16.908Z,6.47
2018-07-12T03:57:43.722Z,6.90
2018-07-12T04:00:10.561Z,6.83
2018-07-12T04:02:37.436Z,6.67
2018-07-12T04:05:04.279Z,6.90
2018-07-12T04:07:31.132Z,6.77
2018-07-12T04:09:57.938Z,6.67
2018-07-12T04:12:24.742Z,6.57
2018-07-12T04:14:51.567Z,6.30
2018-07-12T04:17:29.151Z,7.17
2018-07-12T04:19:56.545Z,6.47
2018-07-12T04:22:23.451Z,6.63
2018-07-12T04:24:50.368Z,6.27
2018-07-12T04:27:17.955Z,5.70
2018-07-12T04:29:44.764Z,5.87
2018-07-12T04:32:11.568Z,6.37
2018-07-12T04:34:38.436Z,5.57
2018-07-12T04:37:05.268Z,6.00
2018-07-12T04:39:32.087Z,5.50
2018-07-12T04:41:58.939Z,5.63
2018-07-12T04:44:26.108Z,5.73
2018-07-12T04:46:52.971Z,5.80
2018-07-12T04:49:20.461Z,5.57
2018-07-12T04:51:47.283Z,5.17
2018-07-12T04:54:14.091Z,5.37
2018-07-12T04:56:41.035Z,5.43
2018-07-12T04:59:07.888Z,5.40
2018-07-12T05:01:34.793Z,5.43
2018-07-12T05:04:01.639Z,4.83
2018-07-12T05:06:28.458Z,4.83
2018-07-12T05:08:55.275Z,4.93
2018-07-12T05:11:22.760Z,4.70
2018-07-12T05:13:49.643Z,4.47
2018-07-12T05:16:16.588Z,4.33
2018-07-12T05:18:43.387Z,4.33
2018-07-12T05:21:10.200Z,4.07
2018-07-12T05:23:37.030Z,4.57
2018-07-12T05:26:03.887Z,4.37
2018-07-12T05:28:30.803Z,4.47
2018-07-12T05:30:57.609Z,4.43
2018-07-12T05:33:24.545Z,4.33
2018-07-12T05:35:52.088Z,4.37
2018-07-12T05:38:19.504Z,4.20
2018-07-12T05:40:46.944Z,4.13
2018-07-12T05:43:14.370Z,3.97
2018-07-12T05:45:41.800Z,4.20
2018-07-12T05:48:09.284Z,4.33
2018-07-12T05:50:37.255Z,4.53
2018-07-12T05:53:04.692Z,3.97
2018-07-12T05:55:32.116Z,4.40
2018-07-12T05:57:59.507Z,3.83
2018-07-12T06:00:26.907Z,4.20
2018-07-12T06:02:54.431Z,3.90
2018-07-12T06:05:21.847Z,4.23
2018-07-12T06:07:49.272Z,4.40
2018-07-12T06:10:16.719Z,4.10
2018-07-12T06:12:44.107Z,4.27
2018-07-12T06:15:11.517Z,3.60
2018-07-12T06:17:38.948Z,4.17
2018-07-12T06:20:07.867Z,4.30
2018-07-12T06:22:35.331Z,3.83
2018-07-12T06:25:02.756Z,3.80
2018-07-12T06:27:30.152Z,3.83
2018-07-12T06:29:57.610Z,4.07
2018-07-12T06:32:25.011Z,3.47
2018-07-12T06:34:52.411Z,3.80
2018-07-12T06:37:19.827Z,3.80
2018-07-12T06:39:47.267Z,3.60
2018-07-12T06:42:14.664Z,4.10
2018-07-12T06:44:42.086Z,3.93
2018-07-12T06:47:09.524Z,3.83
2018-07-12T06:49:36.924Z,4.33
2018-07-12T06:52:04.382Z,4.50
2018-07-12T06:54:31.815Z,4.20
2018-07-12T06:56:59.208Z,4.27
2018-07-12T06:59:26.625Z,4.60
2018-07-12T07:01:54.052Z,4.07
2018-07-12T07:04:21.484Z,4.57
2018-07-12T07:06:48.943Z,4.27
2018-07-12T07:09:16.383Z,4.00
2018-07-12T07:11:43.816Z,3.80
2018-07-12T07:14:11.221Z,4.30
2018-07-12T07:16:38.643Z,4.37
2018-07-12T07:19:06.069Z,4.57
2018-07-12T07:21:33.464Z,4.70
2018-07-12T07:24:01.212Z,4.40
2018-07-12T07:26:28.642Z,4.10
2018-07-12T07:28:56.054Z,4.67
2018-07-12T07:31:23.483Z,4.20
2018-07-12T07:33:51.231Z,4.40
2018-07-12T07:36:18.896Z,4.33
2018-07-12T07:38:46.319Z,4.20
2018-07-12T07:41:13.729Z,4.20
2018-07-12T07:43:41.136Z,4.70
2018-07-12T07:46:08.596Z,4.67
2018-07-12T07:48:36.030Z,4.23
2018-07-12T07:51:03.787Z,4.53
2018-07-12T07:53:31.275Z,4.30
2018-07-12T07:55:58.703Z,4.40
2018-07-12T07:58:26.155Z,4.62
2018-07-12T08:00:53.614Z,4.27
2018-07-12T08:03:21.056Z,4.50
2018-07-12T08:05:48.740Z,4.25
2018-07-12T08:08:16.167Z,4.62
2018-07-12T08:10:43.611Z,4.33
2018-07-12T08:13:11.016Z,4.80
2018-07-12T08:15:38.488Z,4.43
2018-07-12T08:18:05.891Z,4.23
2018-07-12T08:20:33.307Z,4.72
2018-07-12T08:23:00.712Z,5.00
2018-07-12T08:25:28.143Z,4.90
2018-07-12T08:28:00.979Z,4.57
2018-07-12T08:30:28.435Z,4.40
2018-07-12T08:32:55.827Z,4.70
2018-07-12T08:35:23.324Z,4.30
2018-07-12T08:37:50.768Z,4.50
2018-07-12T08:40:18.182Z,4.10
2018-07-12T08:42:45.644Z,4.05
2018-07-12T08:45:13.047Z,3.72
2018-07-12T08:47:40.467Z,4.22
2018-07-12T08:50:07.925Z,4.03
2018-07-12T08:52:35.403Z,4.10
2018-07-12T08:55:02.806Z,4.37
2018-07-12T08:57:30.283Z,3.45
2018-07-12T08:59:57.894Z,4.00
2018-07-12T09:02:25.408Z,4.30
2018-07-12T09:04:53.013Z,4.45
2018-07-12T09:07:20.507Z,4.03
2018-07-12T09:09:47.915Z,3.90
2018-07-12T09:12:15.350Z,4.12
2018-07-12T09:14:42.901Z,3.85
2018-07-12T09:17:10.319Z,3.92
2018-07-12T09:19:37.759Z,3.95
2018-07-12T09:22:05.164Z,4.10
2018-07-12T09:24:32.565Z,4.05
2018-07-12T09:27:00.042Z,4.05
2018-07-12T09:29:27.431Z,4.10
2018-07-12T09:31:54.848Z,3.95
2018-07-12T09:34:22.291Z,4.15
2018-07-12T09:36:49.694Z,4.12
2018-07-12T09:39:17.215Z,3.95
2018-07-12T09:41:44.656Z,4.30
2018-07-12T09:44:12.051Z,4.58
2018-07-12T09:46:39.443Z,4.25
2018-07-12T09:49:06.921Z,4.07
2018-07-12T09:51:34.311Z,4.10
2018-07-12T09:54:01.707Z,4.00
2018-07-12T09:56:34.687Z,4.40
2018-07-12T09:59:02.159Z,4.73
2018-07-12T10:01:35.132Z,4.10
2018-07-12T10:04:02.580Z,4.23
2018-07-12T10:06:31.955Z,4.30
2018-07-12T10:10:03.017Z,4.63
2018-07-12T10:14:40.268Z,4.13
2018-07-12T10:17:17.675Z,4.13
2018-07-12T10:19:45.120Z,4.40
2018-07-12T10:22:12.659Z,4.40
2018-07-12T10:24:40.310Z,4.80
2018-07-12T10:27:07.755Z,3.97
2018-07-12T10:29:35.156Z,4.20
2018-07-12T10:32:03.025Z,4.80
2018-07-12T10:34:30.564Z,4.20
2018-07-12T10:36:58.099Z,4.30
2018-07-12T10:39:25.531Z,4.17
2018-07-12T10:41:53.316Z,4.40
2018-07-12T10:44:20.785Z,4.60
2018-07-12T10:46:48.254Z,4.30
2018-07-12T10:49:16.006Z,4.20
2018-07-12T10:51:43.411Z,4.15
2018-07-12T10:54:10.879Z,4.12
2018-07-12T10:56:38.440Z,3.85
2018-07-12T10:59:06.056Z,4.47
2018-07-12T11:01:33.484Z,3.95
2018-07-12T11:04:00.967Z,4.08
2018-07-12T11:06:28.413Z,3.65
2018-07-12T11:08:55.899Z,3.75
2018-07-12T11:11:23.311Z,3.92
2018-07-12T11:13:52.042Z,4.00
2018-07-12T11:16:19.480Z,3.80
2018-07-12T11:18:46.938Z,3.77
2018-07-12T11:21:14.744Z,3.80
2018-07-12T11:23:42.484Z,3.77
2018-07-12T11:26:10.100Z,4.00
2018-07-12T11:28:37.526Z,4.05
2018-07-12T11:31:04.964Z,3.67
2018-07-12T11:33:32.775Z,3.90
2018-07-12T11:36:00.193Z,3.50
2018-07-12T11:38:27.619Z,3.27
2018-07-12T11:40:55.045Z,3.30
2018-07-12T11:43:22.432Z,3.75
2018-07-12T11:45:49.875Z,3.20
2018-07-12T11:48:17.285Z,3.22
2018-07-12T11:50:44.700Z,2.98
2018-07-12T11:53:12.123Z,3.60
2018-07-12T11:55:39.539Z,3.42
2018-07-12T11:58:06.948Z,3.12
2018-07-12T12:00:34.387Z,3.25
2018-07-12T12:03:01.796Z,3.30
2018-07-12T12:05:29.208Z,3.58
2018-07-12T12:07:56.629Z,3.37
2018-07-12T12:10:24.139Z,3.50
2018-07-12T12:12:51.598Z,3.35
2018-07-12T12:15:19.188Z,3.42
2018-07-12T12:17:46.607Z,3.77
2018-07-12T12:20:14.032Z,3.30
2018-07-12T12:22:41.467Z,3.33
2018-07-12T12:25:09.075Z,3.70
2018-07-12T12:27:36.599Z,3.50
2018-07-12T12:30:04.200Z,3.43
2018-07-12T12:32:31.691Z,3.57
2018-07-12T12:34:59.096Z,3.40
2018-07-12T12:37:26.531Z,3.43
2018-07-12T12:39:53.917Z,3.33
2018-07-12T12:42:21.327Z,3.67
2018-07-12T12:44:48.748Z,3.53
2018-07-12T12:47:16.172Z,3.50
2018-07-12T12:49:43.587Z,3.73
2018-07-12T12:52:11.033Z,3.50
2018-07-12T12:54:38.430Z,3.77
2018-07-12T12:57:05.835Z,3.20
2018-07-12T12:59:33.245Z,3.47
2018-07-12T13:02:00.647Z,3.30
2018-07-12T13:04:28.051Z,3.50
2018-07-12T13:06:55.491Z,3.20
2018-07-12T13:09:22.903Z,3.50
2018-07-12T13:11:50.303Z,3.20
2018-07-12T13:14:17.720Z,3.40
2018-07-12T13:16:45.142Z,3.43
2018-07-12T13:19:12.587Z,3.40
2018-07-12T13:21:40.007Z,3.37
2018-07-12T13:24:08.171Z,3.33
2018-07-12T13:26:35.612Z,3.43
2018-07-12T13:29:03.262Z,3.67
2018-07-12T13:31:30.679Z,3.40
2018-07-12T13:33:58.095Z,3.33
2018-07-12T13:36:25.590Z,3.70
2018-07-12T13:38:53.001Z,3.63
2018-07-12T13:41:20.438Z,3.60
2018-07-12T13:43:47.985Z,3.33
2018-07-12T13:46:15.380Z,3.13
2018-07-12T13:48:43.083Z,3.20
2018-07-12T13:51:10.643Z,3.27
2018-07-12T13:53:38.072Z,3.37
2018-07-12T13:56:05.497Z,3.20
2018-07-12T13:58:32.935Z,3.30
2018-07-12T14:01:00.332Z,3.20
2018-07-12T14:03:27.789Z,3.10
2018-07-12T14:05:55.275Z,3.10
2018-07-12T14:08:22.667Z,3.27
2018-07-12T14:10:50.131Z,3.50
2018-07-12T14:13:17.536Z,3.37
2018-07-12T14:15:45.016Z,3.37
2018-07-12T14:18:12.427Z,3.23
2018-07-12T14:20:39.833Z,3.30
2018-07-12T14:23:07.267Z,3.20
2018-07-12T14:25:34.720Z,3.20
2018-07-12T14:28:02.144Z,2.93
2018-07-12T14:30:29.569Z,3.00
2018-07-12T14:32:56.976Z,2.73
2018-07-12T14:35:24.404Z,3.00
2018-07-12T14:37:51.861Z,3.00
2018-07-12T14:40:19.259Z,3.40
2018-07-12T14:42:46.692Z,2.90
2018-07-12T14:45:14.203Z,3.20
2018-07-12T14:47:41.625Z,3.20
2018-07-12T14:50:09.127Z,3.07
2018-07-12T14:52:37.175Z,3.00
2018-07-12T14:55:04.620Z,3.10
2018-07-12T14:57:32.599Z,2.80
2018-07-12T15:00:00.045Z,2.97
2018-07-12T15:02:27.439Z,2.83
2018-07-12T15:04:54.827Z,2.47
2018-07-12T15:07:22.287Z,2.90
2018-07-12T15:09:49.953Z,2.57
2018-07-12T15:12:17.363Z,2.93
2018-07-12T15:14:44.800Z,2.97
2018-07-12T15:17:12.205Z,3.00
2018-07-12T15:19:39.591Z,3.30
2018-07-12T15:22:07.019Z,3.37
2018-07-12T15:24:34.423Z,3.53
2018-07-12T15:27:01.886Z,3.50
2018-07-12T15:29:29.400Z,3.17
2018-07-12T15:31:56.787Z,3.73
2018-07-12T15:34:24.187Z,3.67
2018-07-12T15:36:51.640Z,3.70
2018-07-12T15:39:19.037Z,3.70
2018-07-12T15:41:47.403Z,3.70
2018-07-12T15:44:14.835Z,3.70
2018-07-12T15:46:45.953Z,3.80
2018-07-12T15:49:13.431Z,3.63
2018-07-12T15:51:40.883Z,3.80
2018-07-12T15:54:08.480Z,3.43
2018-07-12T15:56:36.013Z,3.83
2018-07-12T15:59:03.812Z,3.60
2018-07-12T16:01:31.215Z,3.87
2018-07-12T16:03:58.615Z,3.40
2018-07-12T16:06:26.033Z,3.50
2018-07-12T16:08:53.467Z,3.50
2018-07-12T16:11:20.867Z,3.70
2018-07-12T16:13:48.393Z,3.90
2018-07-12T16:16:15.839Z,4.17
2018-07-12T16:18:43.280Z,4.10
2018-07-12T16:21:10.754Z,4.47
2018-07-12T16:23:38.180Z,4.40
2018-07-12T16:26:05.585Z,4.20
2018-07-12T16:28:33.007Z,4.53
2018-07-12T16:31:00.452Z,4.93
2018-07-12T16:33:27.847Z,4.80
2018-07-12T16:35:55.419Z,4.70
2018-07-12T16:38:23.064Z,4.70
2018-07-12T16:40:50.484Z,4.80
2018-07-12T16:43:17.895Z,4.80
2018-07-12T16:45:45.284Z,4.67
2018-07-12T16:48:12.727Z,4.80
2018-07-12T16:50:40.144Z,4.77
2018-07-12T16:53:07.529Z,4.90
2018-07-12T16:55:34.948Z,4.77
2018-07-12T16:58:02.483Z,5.00
2018-07-12T17:00:29.895Z,4.37
2018-07-12T17:02:57.554Z,4.80
2018-07-12T17:05:25.036Z,4.73
2018-07-12T17:07:52.638Z,4.77
2018-07-12T17:10:19.924Z,4.73
2018-07-12T17:12:47.403Z,4.70
2018-07-12T17:15:14.826Z,4.97
2018-07-12T17:17:42.229Z,4.70
2018-07-12T17:20:09.646Z,5.03
2018-07-12T17:22:37.108Z,4.70
2018-07-12T17:25:04.558Z,4.60
2018-07-12T17:27:31.991Z,4.80
2018-07-12T17:29:59.411Z,4.47
2018-07-12T17:32:26.845Z,4.22
2018-07-12T17:34:54.341Z,3.92
2018-07-12T17:37:21.784Z,4.00
2018-07-12T17:39:49.195Z,4.30
2018-07-12T17:42:16.624Z,4.08
2018-07-12T17:44:44.023Z,4.22
2018-07-12T17:47:11.647Z,4.58
2018-07-12T17:49:39.083Z,4.15
2018-07-12T17:52:06.547Z,4.60
2018-07-12T17:54:33.999Z,4.90
2018-07-12T17:57:01.407Z,4.45
2018-07-12T17:59:29.443Z,5.10
2018-07-12T18:01:56.867Z,5.20
2018-07-12T18:04:24.307Z,5.23
2018-07-12T18:06:53.534Z,5.57
2018-07-12T18:09:20.942Z,5.87
2018-07-12T18:11:48.384Z,5.47
2018-07-12T18:14:15.813Z,6.13
2018-07-12T18:16:43.227Z,5.80
2018-07-12T18:19:10.651Z,5.77
2018-07-12T18:21:38.035Z,6.17
2018-07-12T18:24:05.440Z,5.90
2018-07-12T18:26:32.856Z,5.90
2018-07-12T18:29:00.244Z,6.30
2018-07-12T18:31:27.643Z,5.73
2018-07-12T18:33:55.063Z,5.87
2018-07-12T18:36:22.440Z,6.07
2018-07-12T18:38:49.863Z,5.90
2018-07-12T18:41:17.289Z,5.97
2018-07-12T18:43:44.715Z,6.30
2018-07-12T18:46:12.128Z,6.00
2018-07-12T18:48:39.563Z,5.97
2018-07-12T18:51:06.953Z,5.90
2018-07-12T18:53:34.344Z,6.00
2018-07-12T18:56:01.951Z,6.10
2018-07-12T18:58:29.363Z,6.60
2018-07-12T19:00:56.805Z,6.57
2018-07-12T19:03:24.249Z,6.60
2018-07-12T19:05:51.651Z,7.20
2018-07-12T19:08:19.051Z,7.27
2018-07-12T19:10:46.517Z,7.03
2018-07-12T19:13:13.955Z,6.97
2018-07-12T19:15:41.359Z,7.17
2018-07-12T19:18:08.796Z,7.33
2018-07-12T19:20:36.175Z,7.60
2018-07-12T19:23:03.571Z,7.03
2018-07-12T19:25:30.992Z,7.60
2018-07-12T19:27:58.406Z,8.13
2018-07-12T19:30:25.797Z,8.27
2018-07-12T19:32:53.240Z,7.90
2018-07-12T19:35:20.627Z,8.03
2018-07-12T19:37:48.026Z,7.83
2018-07-12T19:40:15.443Z,7.90
2018-07-12T19:42:42.964Z,8.57
2018-07-12T19:45:10.363Z,8.30
2018-07-12T19:47:37.791Z,8.87
2018-07-12T19:50:05.275Z,9.27
2018-07-12T19:52:32.649Z,8.53
2018-07-12T19:55:00.089Z,9.53
2018-07-12T19:57:27.495Z,9.07
2018-07-12T19:59:54.916Z,8.60
2018-07-12T20:02:22.396Z,9.67
2018-07-12T20:04:49.798Z,9.00
2018-07-12T20:07:17.203Z,8.33
2018-07-12T20:09:44.663Z,8.60
2018-07-12T20:12:12.052Z,9.20
2018-07-12T20:14:39.517Z,8.73
2018-07-12T20:17:06.951Z,9.17
2018-07-12T20:19:34.393Z,8.17
2018-07-12T20:22:01.887Z,9.00
2018-07-12T20:24:29.303Z,8.83
2018-07-12T20:26:56.713Z,9.20
2018-07-12T20:29:24.147Z,9.53
2018-07-12T20:31:51.592Z,10.40
2018-07-12T20:34:19.021Z,10.10
2018-07-12T20:36:46.479Z,9.47
2018-07-12T20:39:13.935Z,10.27
2018-07-12T20:41:41.382Z,10.10
2018-07-12T20:44:08.835Z,10.17
2018-07-12T20:46:36.236Z,10.00
2018-07-12T20:49:03.679Z,10.47
2018-07-12T20:51:31.107Z,10.03
2018-07-12T20:53:58.491Z,10.07
2018-07-12T20:56:25.883Z,9.83
2018-07-12T20:58:53.295Z,9.93
2018-07-12T21:01:20.724Z,10.43
2018-07-12T21:03:48.135Z,10.27
2018-07-12T21:06:15.664Z,10.60
2018-07-12T21:08:43.059Z,10.30
2018-07-12T21:11:10.467Z,11.53
2018-07-12T21:13:37.874Z,10.10
2018-07-12T21:16:05.764Z,9.93
2018-07-12T21:18:33.161Z,10.87
2018-07-12T21:21:00.595Z,10.20
2018-07-12T21:23:28.023Z,9.93
2018-07-12T21:25:55.473Z,10.67
2018-07-12T21:28:22.924Z,10.47
2018-07-12T21:30:50.334Z,10.80
2018-07-12T21:33:17.831Z,10.77
2018-07-12T21:35:45.203Z,11.00
2018-07-12T21:38:12.604Z,10.23
2018-07-12T21:40:40.016Z,10.03
2018-07-12T21:43:07.443Z,10.27
2018-07-12T21:45:34.892Z,10.20
2018-07-12T21:48:02.300Z,11.07
2018-07-12T21:50:29.756Z,10.47
2018-07-12T21:52:57.157Z,10.90
2018-07-12T21:55:24.550Z,11.07
2018-07-12T21:57:51.973Z,10.93
2018-07-12T22:00:19.396Z,11.10
2018-07-12T22:02:46.920Z,11.07
2018-07-12T22:05:14.425Z,11.10
2018-07-12T22:08:14.628Z,11.20
2018-07-12T22:10:42.898Z,10.87
2018-07-12T22:13:10.988Z,10.97
2018-07-12T22:15:38.419Z,11.70
2018-07-12T22:18:05.928Z,11.03
2018-07-12T22:20:33.335Z,10.97
2018-07-12T22:23:00.927Z,10.80
2018-07-12T22:25:28.339Z,10.87
2018-07-12T22:27:55.876Z,10.37
2018-07-12T22:30:23.317Z,11.30
2018-07-12T22:32:50.737Z,10.80
2018-07-12T22:35:18.130Z,11.53
2018-07-12T22:37:45.690Z,11.00
2018-07-12T22:40:13.145Z,10.67
2018-07-12T22:42:40.610Z,10.87
2018-07-12T22:45:07.999Z,11.03
2018-07-12T22:47:35.557Z,11.17
2018-07-12T22:50:03.848Z,10.17
2018-07-12T22:52:31.247Z,11.27
2018-07-12T22:54:58.663Z,11.23
2018-07-12T22:57:26.068Z,11.27
2018-07-12T22:59:53.463Z,11.43
2018-07-12T23:02:20.899Z,10.90
2018-07-12T23:04:48.285Z,11.27
2018-07-12T23:07:15.728Z,11.90
2018-07-12T23:09:43.135Z,11.30
2018-07-12T23:12:10.539Z,10.87
2018-07-12T23:14:37.979Z,10.83
2018-07-12T23:17:05.440Z,12.23
2018-07-12T23:19:32.885Z,12.00
2018-07-12T23:22:00.327Z,11.43
2018-07-12T23:24:27.751Z,11.80
2018-07-12T23:26:55.152Z,11.83
2018-07-12T23:29:22.763Z,12.17
2018-07-12T23:31:50.267Z,11.53
2018-07-12T23:34:17.688Z,11.80
2018-07-12T23:36:45.122Z,11.87
2018-07-12T23:39:12.567Z,11.83
2018-07-12T23:41:39.991Z,11.90
2018-07-12T23:44:07.411Z,11.77
2018-07-12T23:46:34.829Z,12.13
2018-07-12T23:49:02.247Z,11.90
2018-07-12T23:51:29.675Z,12.37
2018-07-12T23:53:57.101Z,12.10
2018-07-12T23:56:24.497Z,12.90
2018-07-12T23:58:51.887Z,12.60
